Time;durP1;ratioP1;P1;durP2;ratioP2;P2;SDS_P1;SDS_P2;PMS_P1;PMS_P2;Temp;Humidity;BMP_temperature;BMP_pressure;BME280_temperature;BME280_humidity;BME280_pressure;Samples;Min_cycle;Max_cycle;Signal;HPM_P1;HPM_P2
2022/04/15 00:01:39;;;;;;;13.65;10.55;;;11.30;99.90;;;;;;4342017;28;10000967;-70
2022/04/15 00:04:05;;;;;;;15.05;10.23;;;11.30;99.90;;;;;;5028462;28;20087;-70
2022/04/15 00:06:30;;;;;;;12.93;9.70;;;11.30;99.90;;;;;;5041759;28;20025;-70
2022/04/15 00:08:56;;;;;;;13.43;9.82;;;11.30;99.90;;;;;;5041554;28;20472;-70
2022/04/15 00:11:21;;;;;;;13.35;9.98;;;11.30;99.90;;;;;;5044354;28;20037;-70
2022/04/15 00:13:48;;;;;;;11.63;9.48;;;11.30;99.90;;;;;;5036934;28;20028;-70
2022/04/15 00:16:14;;;;;;;14.27;10.60;;;11.30;99.90;;;;;;5034658;28;20204;-70
2022/04/15 00:18:41;;;;;;;13.65;9.90;;;11.20;99.90;;;;;;5037119;28;20043;-69
2022/04/15 00:21:07;;;;;;;13.05;9.32;;;11.10;99.90;;;;;;5047376;28;20097;-70
2022/04/15 00:23:34;;;;;;;12.30;9.77;;;11.10;99.90;;;;;;5045268;28;20021;-69
2022/04/15 00:26:00;;;;;;;13.00;9.70;;;11.10;99.90;;;;;;5046006;28;20025;-70
2022/04/15 00:28:26;;;;;;;13.77;10.90;;;11.00;99.90;;;;;;5043953;28;20040;-70
2022/04/15 00:30:51;;;;;;;13.35;10.80;;;10.90;99.90;;;;;;5046103;28;20020;-70
2022/04/15 00:33:17;;;;;;;12.75;9.77;;;10.90;99.90;;;;;;5048314;28;20151;-69
2022/04/15 00:35:43;;;;;;;12.75;10.10;;;10.80;99.90;;;;;;5072971;28;20046;-70
2022/04/15 00:38:09;;;;;;;12.40;10.02;;;10.70;99.90;;;;;;5073592;28;20066;-70
2022/04/15 00:40:34;;;;;;;13.05;10.23;;;10.70;99.90;;;;;;5073098;28;20412;-70
2022/04/15 00:43:00;;;;;;;17.15;12.35;;;10.60;99.90;;;;;;5078628;28;20153;-69
2022/04/15 00:45:26;;;;;;;18.98;11.85;;;10.60;99.90;;;;;;5072954;28;20039;-70
2022/04/15 00:47:54;;;;;;;14.65;11.10;;;10.50;99.90;;;;;;5075294;28;20068;-70
2022/04/15 00:50:25;;;;;;;12.18;9.95;;;10.50;99.90;;;;;;5076657;28;20668;-69
2022/04/15 00:52:52;;;;;;;14.82;10.68;;;10.50;99.90;;;;;;5078811;28;20148;-70
2022/04/15 00:55:19;;;;;;;14.20;11.32;;;10.40;99.90;;;;;;5079254;28;20433;-70
2022/04/15 00:57:55;;;;;;;16.90;11.75;;;10.40;99.90;;;;;;5074785;28;20075;-70
2022/04/15 01:00:22;;;;;;;12.90;10.82;;;10.40;99.90;;;;;;5079505;28;20078;-69
2022/04/15 01:02:48;;;;;;;14.55;11.63;;;10.40;99.90;;;;;;5080375;28;20028;-69
2022/04/15 01:05:15;;;;;;;15.70;11.07;;;10.40;99.90;;;;;;5070086;28;20119;-70
2022/04/15 01:07:43;;;;;;;14.07;10.90;;;10.30;99.90;;;;;;5071095;28;20496;-69
2022/04/15 01:10:11;;;;;;;14.73;10.93;;;10.30;99.90;;;;;;5084965;28;20042;-69
2022/04/15 01:12:56;;;;;;;16.25;11.18;;;10.30;99.90;;;;;;5069975;28;20130;-69
2022/04/15 01:15:25;;;;;;;14.05;10.95;;;10.20;99.90;;;;;;5072140;28;20776;-70
2022/04/15 01:17:50;;;;;;;16.45;11.25;;;10.20;99.90;;;;;;5068306;28;20063;-69
2022/04/15 01:20:18;;;;;;;13.52;10.70;;;10.30;99.90;;;;;;5078306;28;20404;-69
2022/04/15 01:22:50;;;;;;;16.17;11.40;;;10.30;99.90;;;;;;5080877;28;20070;-69
2022/04/15 01:25:17;;;;;;;15.25;11.18;;;10.40;99.90;;;;;;5076420;28;20016;-69
2022/04/15 01:27:49;;;;;;;17.80;12.13;;;10.40;99.90;;;;;;5072220;28;20247;-69
2022/04/15 01:30:17;;;;;;;16.67;11.43;;;10.40;99.90;;;;;;5078978;28;20609;-69
2022/04/15 01:32:44;;;;;;;14.60;10.82;;;10.40;99.90;;;;;;5075192;28;20028;-70
2022/04/15 01:35:11;;;;;;;15.18;11.40;;;10.40;99.90;;;;;;5070616;28;20127;-69
2022/04/15 01:37:37;;;;;;;14.57;10.23;;;10.40;99.90;;;;;;5075003;28;20133;-69
2022/04/15 01:40:05;;;;;;;13.48;10.40;;;10.30;99.90;;;;;;5074945;28;20299;-69
2022/04/15 01:42:31;;;;;;;14.18;10.23;;;10.30;99.90;;;;;;5073651;28;20058;-69
2022/04/15 01:44:57;;;;;;;14.02;9.70;;;10.20;99.90;;;;;;5077398;28;20110;-70
2022/04/15 01:47:22;;;;;;;11.13;9.15;;;10.10;99.90;;;;;;5076125;28;20026;-70
2022/04/15 01:49:48;;;;;;;12.93;9.85;;;10.10;99.90;;;;;;5077957;28;20063;-69
2022/04/15 01:52:14;;;;;;;10.98;9.35;;;10.00;99.90;;;;;;5079067;28;20094;-70
2022/04/15 01:54:39;;;;;;;13.25;9.20;;;10.00;99.90;;;;;;5070670;28;20507;-69
2022/04/15 01:57:05;;;;;;;11.55;9.48;;;9.90;99.90;;;;;;5083726;28;20031;-70
2022/04/15 01:59:30;;;;;;;12.65;9.60;;;9.90;99.90;;;;;;5079284;28;20399;-69
2022/04/15 02:01:56;;;;;;;16.52;11.07;;;9.80;99.90;;;;;;5076812;28;20559;-69
2022/04/15 02:04:26;;;;;;;14.63;10.07;;;9.80;99.90;;;;;;5073995;28;20086;-70
2022/04/15 02:06:52;;;;;;;14.15;10.65;;;9.70;99.90;;;;;;5069451;28;20027;-69
2022/04/15 02:09:17;;;;;;;14.43;10.60;;;9.70;99.90;;;;;;5078849;28;20413;-70
2022/04/15 02:11:44;;;;;;;18.25;12.45;;;9.60;99.90;;;;;;5083876;28;20057;-69
2022/04/15 02:14:10;;;;;;;15.48;11.75;;;9.60;99.90;;;;;;5074900;28;20488;-69
2022/04/15 02:16:36;;;;;;;16.33;11.82;;;9.50;99.90;;;;;;5076213;28;20036;-69
2022/04/15 02:19:02;;;;;;;16.00;11.52;;;9.40;99.90;;;;;;5071167;28;20421;-69
2022/04/15 02:21:28;;;;;;;14.10;11.75;;;9.40;99.90;;;;;;5082426;28;20484;-70
2022/04/15 02:23:53;;;;;;;15.30;12.10;;;9.30;99.90;;;;;;5079752;28;20032;-69
2022/04/15 02:26:19;;;;;;;17.83;13.25;;;9.30;99.90;;;;;;5078278;28;20431;-69
2022/04/15 02:28:44;;;;;;;16.70;12.40;;;9.30;99.90;;;;;;5084955;28;20726;-70
2022/04/15 02:31:10;;;;;;;14.73;11.63;;;9.30;99.90;;;;;;5086914;28;20032;-69
2022/04/15 02:33:35;;;;;;;16.92;11.32;;;9.20;99.90;;;;;;5080551;28;20032;-69
2022/04/15 02:36:01;;;;;;;15.10;11.73;;;9.20;99.90;;;;;;5077680;28;20050;-69
2022/04/15 02:38:27;;;;;;;16.77;11.35;;;9.20;99.90;;;;;;5076476;28;20046;-69
2022/04/15 02:40:53;;;;;;;17.60;12.43;;;9.20;99.90;;;;;;5074767;28;20056;-69
2022/04/15 02:43:19;;;;;;;16.23;12.13;;;9.20;99.90;;;;;;5076503;28;20026;-69
2022/04/15 02:45:44;;;;;;;15.32;11.60;;;9.10;99.90;;;;;;5078694;28;20464;-69
2022/04/15 02:48:10;;;;;;;15.65;11.85;;;9.20;99.90;;;;;;5082118;28;20024;-69
2022/04/15 02:50:36;;;;;;;15.52;10.93;;;9.20;99.90;;;;;;5084012;28;20093;-69
2022/04/15 02:53:02;;;;;;;14.73;11.13;;;9.10;99.90;;;;;;5083313;28;20024;-69
2022/04/15 02:55:27;;;;;;;12.55;10.68;;;9.10;99.90;;;;;;5075427;28;20048;-69
2022/04/15 02:57:53;;;;;;;16.05;11.75;;;9.10;99.90;;;;;;5085634;28;20354;-70
2022/04/15 03:00:19;;;;;;;20.25;13.65;;;9.00;99.90;;;;;;5092017;28;20051;-69
2022/04/15 03:02:45;;;;;;;18.95;13.95;;;9.00;99.90;;;;;;5088335;28;20097;-69
2022/04/15 03:05:11;;;;;;;22.92;15.90;;;9.10;99.90;;;;;;5074771;28;20480;-69
2022/04/15 03:07:37;;;;;;;18.98;14.02;;;9.20;99.90;;;;;;5078466;28;20035;-69
2022/04/15 03:10:04;;;;;;;17.40;13.18;;;9.20;99.90;;;;;;5077769;28;20031;-70
2022/04/15 03:12:36;;;;;;;15.18;12.50;;;9.10;99.90;;;;;;5084357;28;20035;-69
2022/04/15 03:15:04;;;;;;;18.58;13.52;;;9.10;99.90;;;;;;5077977;28;20908;-69
2022/04/15 03:17:30;;;;;;;17.70;13.68;;;9.10;99.90;;;;;;5079066;28;20043;-69
2022/04/15 03:19:55;;;;;;;16.73;12.68;;;9.00;99.90;;;;;;5077118;28;20050;-69
2022/04/15 03:22:21;;;;;;;19.10;14.10;;;9.00;99.90;;;;;;5077364;28;20535;-69
2022/04/15 03:24:48;;;;;;;19.67;14.50;;;9.10;99.90;;;;;;5076657;28;20131;-70
2022/04/15 03:27:14;;;;;;;18.85;13.73;;;9.10;99.90;;;;;;5078978;28;20491;-69
2022/04/15 03:29:40;;;;;;;16.60;12.70;;;9.10;99.90;;;;;;5083586;28;20089;-69
2022/04/15 03:32:06;;;;;;;17.10;13.25;;;9.10;99.90;;;;;;5081251;28;20457;-69
2022/04/15 03:34:32;;;;;;;24.05;15.50;;;9.00;99.90;;;;;;5072031;28;20053;-69
2022/04/15 03:36:58;;;;;;;17.45;13.63;;;9.00;99.90;;;;;;5078819;28;20072;-69
2022/04/15 03:39:23;;;;;;;21.10;13.90;;;9.00;99.90;;;;;;5077990;28;20147;-69
2022/04/15 03:41:49;;;;;;;18.48;14.00;;;9.00;99.90;;;;;;5075822;28;20027;-69
2022/04/15 03:44:14;;;;;;;17.35;13.05;;;9.00;99.90;;;;;;5076874;28;20494;-69
2022/04/15 03:46:40;;;;;;;21.38;14.93;;;9.00;99.90;;;;;;5087999;28;20031;-69
2022/04/15 03:49:07;;;;;;;21.60;14.98;;;9.00;99.90;;;;;;5078863;28;20045;-69
2022/04/15 03:51:33;;;;;;;20.02;15.25;;;9.00;99.90;;;;;;5081553;28;20039;-69
2022/04/15 03:53:58;;;;;;;21.95;15.35;;;9.10;99.90;;;;;;5075193;28;20958;-70
2022/04/15 03:56:24;;;;;;;21.00;15.23;;;9.10;99.90;;;;;;5075774;28;20055;-69
2022/04/15 03:58:50;;;;;;;23.35;16.23;;;9.10;99.90;;;;;;5081690;28;20811;-69
2022/04/15 04:01:15;;;;;;;20.63;15.90;;;9.10;99.90;;;;;;5083285;28;20035;-70
2022/04/15 04:03:41;;;;;;;18.60;14.07;;;9.10;99.90;;;;;;5071365;28;20031;-69
2022/04/15 04:06:06;;;;;;;16.60;13.15;;;9.10;99.90;;;;;;5070925;28;20028;-69
2022/04/15 04:08:32;;;;;;;17.52;12.60;;;9.10;99.90;;;;;;5077663;28;20035;-69
2022/04/15 04:10:57;;;;;;;17.20;12.93;;;9.10;99.90;;;;;;5075991;28;20799;-69
2022/04/15 04:13:23;;;;;;;23.08;15.40;;;9.00;99.90;;;;;;5080145;28;20034;-69
2022/04/15 04:15:49;;;;;;;22.38;15.95;;;9.00;99.90;;;;;;5068755;28;20027;-69
2022/04/15 04:18:17;;;;;;;23.15;17.40;;;9.00;99.90;;;;;;5078004;28;20036;-69
2022/04/15 04:20:43;;;;;;;28.38;19.45;;;9.00;99.90;;;;;;5074246;28;20163;-70
2022/04/15 04:23:09;;;;;;;26.45;18.30;;;8.90;99.90;;;;;;5072931;28;20024;-69
2022/04/15 04:25:35;;;;;;;24.33;17.45;;;8.90;99.90;;;;;;5073325;28;20308;-69
2022/04/15 04:28:00;;;;;;;25.52;18.33;;;8.90;99.90;;;;;;5080569;28;20028;-69
2022/04/15 04:30:26;;;;;;;25.35;18.42;;;8.80;99.90;;;;;;5075729;28;20044;-69
2022/04/15 04:32:52;;;;;;;25.65;18.77;;;8.80;99.90;;;;;;5084426;28;20065;-69
2022/04/15 04:35:20;;;;;;;26.30;18.27;;;8.80;99.90;;;;;;5073549;28;20036;-70
2022/04/15 04:37:46;;;;;;;25.48;16.60;;;8.80;99.90;;;;;;5080203;28;20051;-69
2022/04/15 04:40:13;;;;;;;22.65;17.83;;;8.80;99.90;;;;;;5078403;28;20032;-69
2022/04/15 04:42:39;;;;;;;23.48;16.60;;;8.80;99.90;;;;;;5082590;28;20024;-69
2022/04/15 04:45:05;;;;;;;21.60;15.18;;;8.80;99.90;;;;;;5086973;28;20428;-69
2022/04/15 04:47:31;;;;;;;19.80;14.98;;;8.70;99.90;;;;;;5088820;28;20232;-69
2022/04/15 04:49:58;;;;;;;22.60;16.88;;;8.70;99.90;;;;;;5092758;28;20027;-69
2022/04/15 04:52:24;;;;;;;23.67;17.25;;;8.70;99.90;;;;;;5097465;28;20024;-70
2022/04/15 04:54:50;;;;;;;22.40;17.02;;;8.80;99.90;;;;;;5090510;28;20241;-69
2022/04/15 04:57:16;;;;;;;21.58;15.88;;;8.90;99.90;;;;;;5075465;28;20309;-69
2022/04/15 04:59:41;;;;;;;24.30;18.10;;;8.90;99.90;;;;;;5073565;28;20032;-69
2022/04/15 05:02:10;;;;;;;24.98;16.65;;;8.90;99.90;;;;;;5077678;28;20031;-69
2022/04/15 05:04:36;;;;;;;24.80;17.08;;;8.90;99.90;;;;;;5073865;28;20406;-69
2022/04/15 05:07:02;;;;;;;21.02;16.15;;;9.00;99.90;;;;;;5077090;28;20023;-69
2022/04/15 05:09:27;;;;;;;20.90;15.10;;;9.10;99.90;;;;;;5071736;28;20524;-69
2022/04/15 05:11:53;;;;;;;20.35;15.48;;;9.10;99.90;;;;;;5077547;28;20038;-69
2022/04/15 05:14:19;;;;;;;24.90;17.42;;;9.20;99.90;;;;;;5074756;28;20020;-69
2022/04/15 05:16:44;;;;;;;25.63;16.25;;;9.20;99.90;;;;;;5077877;28;20035;-69
2022/04/15 05:19:10;;;;;;;22.75;15.80;;;9.30;99.90;;;;;;5081734;28;20016;-69
2022/04/15 05:21:36;;;;;;;22.85;15.57;;;9.40;99.90;;;;;;5085142;28;20090;-69
2022/04/15 05:24:02;;;;;;;23.77;16.75;;;9.40;99.90;;;;;;5088914;28;20028;-69
2022/04/15 05:26:29;;;;;;;24.80;16.75;;;9.50;99.90;;;;;;5087870;28;20020;-69
2022/04/15 05:28:55;;;;;;;22.55;16.17;;;9.60;99.90;;;;;;5088705;28;20089;-69
2022/04/15 05:31:20;;;;;;;25.13;15.50;;;9.60;99.90;;;;;;5089667;28;20031;-69
2022/04/15 05:33:46;;;;;;;22.92;16.98;;;9.70;99.90;;;;;;5073218;28;20515;-69
2022/04/15 05:36:11;;;;;;;27.38;18.30;;;9.80;99.90;;;;;;5085452;28;20028;-69
2022/04/15 05:38:37;;;;;;;27.20;20.27;;;;;;;;;;5089462;28;21294;-69
2022/04/15 05:41:03;;;;;;;28.50;20.13;;;9.60;99.90;;;;;;5091969;28;20028;-70
2022/04/15 05:43:28;;;;;;;29.98;20.70;;;9.60;99.90;;;;;;5088032;28;20483;-70
2022/04/15 05:45:55;;;;;;;28.20;19.30;;;9.50;99.90;;;;;;5082786;28;20027;-70
2022/04/15 05:48:20;;;;;;;26.63;18.23;;;9.50;99.90;;;;;;5095528;28;20417;-70
2022/04/15 05:50:46;;;;;;;24.20;18.60;;;9.50;99.90;;;;;;5092339;28;20028;-70
2022/04/15 05:53:13;;;;;;;24.33;17.83;;;9.50;99.90;;;;;;5091022;28;20020;-71
2022/04/15 05:55:39;;;;;;;26.13;18.02;;;9.60;99.90;;;;;;5089659;28;20376;-70
2022/04/15 05:58:07;;;;;;;25.25;17.35;;;;;;;;;;5091060;28;20028;-70
2022/04/15 06:00:33;;;;;;;23.75;17.90;;;9.80;99.90;;;;;;5086844;28;20056;-71
2022/04/15 06:02:59;;;;;;;25.13;17.58;;;9.90;99.90;;;;;;5093913;28;20062;-70
2022/04/15 06:05:24;;;;;;;22.35;15.73;;;10.00;99.90;;;;;;5090623;28;20484;-69
2022/04/15 06:07:51;;;;;;;22.00;15.40;;;10.00;99.90;;;;;;5108652;28;20047;-69
2022/04/15 06:10:16;;;;;;;24.52;16.60;;;10.00;99.90;;;;;;5096453;28;20484;-70
2022/04/15 06:12:54;;;;;;;23.17;17.00;;;10.00;99.90;;;;;;5080432;28;20142;-70
2022/04/15 06:15:24;;;;;;;25.63;16.70;;;10.10;99.90;;;;;;5092928;28;20628;-70
2022/04/15 06:17:50;;;;;;;21.80;16.13;;;10.10;99.90;;;;;;5095085;28;20372;-70
2022/04/15 06:20:19;;;;;;;23.67;16.20;;;10.10;99.90;;;;;;4741443;28;9999909;-69
2022/04/15 06:22:45;;;;;;;20.38;14.43;;;10.20;99.90;;;;;;5087466;28;20411;-70
2022/04/15 06:25:11;;;;;;;20.50;14.57;;;10.20;99.90;;;;;;5084594;28;20023;-68
2022/04/15 06:27:37;;;;;;;19.30;14.38;;;10.20;99.90;;;;;;5085509;28;20039;-70
2022/04/15 06:30:04;;;;;;;21.48;14.45;;;10.20;99.90;;;;;;5089306;28;20044;-70
2022/04/15 06:32:30;;;;;;;19.70;13.85;;;10.30;99.90;;;;;;5060210;28;20133;-68
2022/04/15 06:34:56;;;;;;;21.88;14.98;;;10.30;99.90;;;;;;5074715;28;20020;-70
2022/04/15 06:37:21;;;;;;;20.08;14.48;;;10.40;99.90;;;;;;5099182;28;20023;-68
2022/04/15 06:39:50;;;;;;;19.67;15.07;;;10.40;99.90;;;;;;5087697;28;20016;-68
2022/04/15 06:42:22;;;;;;;21.55;13.90;;;10.40;99.90;;;;;;5087242;28;20032;-68
2022/04/15 06:44:49;;;;;;;20.80;13.32;;;10.50;99.90;;;;;;5079544;28;20091;-69
2022/04/15 06:47:14;;;;;;;19.27;12.85;;;10.50;99.90;;;;;;5083402;28;20090;-69
2022/04/15 06:49:41;;;;;;;20.05;12.60;;;10.50;99.90;;;;;;5082491;28;20496;-68
2022/04/15 06:52:07;;;;;;;16.90;12.32;;;10.50;99.90;;;;;;5088341;28;20028;-68
2022/04/15 06:54:33;;;;;;;17.52;12.40;;;10.60;99.90;;;;;;5082565;28;20024;-68
2022/04/15 06:56:58;;;;;;;15.00;10.60;;;10.60;99.90;;;;;;5097468;28;20633;-71
2022/04/15 06:59:24;;;;;;;16.92;11.20;;;10.60;99.90;;;;;;5095569;28;20027;-71
2022/04/15 07:01:50;;;;;;;16.85;11.05;;;10.50;99.90;;;;;;5085779;28;20032;-69
2022/04/15 07:04:16;;;;;;;16.98;11.38;;;10.50;99.90;;;;;;5089417;28;20430;-68
2022/04/15 07:06:42;;;;;;;19.10;11.27;;;10.50;99.90;;;;;;5083499;28;20031;-69
2022/04/15 07:09:07;;;;;;;16.20;11.23;;;10.40;99.90;;;;;;5081523;28;20093;-70
2022/04/15 07:11:33;;;;;;;16.42;11.20;;;10.30;99.90;;;;;;5085440;28;20403;-69
2022/04/15 07:13:59;;;;;;;20.30;12.43;;;10.40;99.90;;;;;;5075876;28;20027;-68
2022/04/15 07:16:24;;;;;;;15.05;10.88;;;10.40;99.90;;;;;;5055861;28;20055;-70
2022/04/15 07:18:52;;;;;;;18.38;11.27;;;10.50;99.90;;;;;;5087026;28;20020;-69
2022/04/15 07:21:18;;;;;;;15.98;10.60;;;10.50;99.90;;;;;;5086221;28;20035;-69
2022/04/15 07:23:44;;;;;;;17.60;11.60;;;10.50;99.90;;;;;;5085765;28;20143;-68
2022/04/15 07:26:10;;;;;;;18.83;11.13;;;10.40;99.90;;;;;;5081226;28;20070;-69
2022/04/15 07:28:36;;;;;;;18.60;11.52;;;10.40;99.90;;;;;;5087499;28;20048;-69
2022/04/15 07:31:02;;;;;;;16.92;11.25;;;10.40;99.90;;;;;;5088444;28;20035;-68
2022/04/15 07:33:27;;;;;;;15.82;11.02;;;10.40;99.90;;;;;;5092108;28;20027;-70
2022/04/15 07:35:53;;;;;;;20.25;11.25;;;10.50;99.90;;;;;;5088336;28;20020;-68
2022/04/15 07:38:18;;;;;;;15.32;11.35;;;10.50;99.90;;;;;;5087126;28;20027;-70
2022/04/15 07:40:44;;;;;;;15.07;10.60;;;10.40;99.90;;;;;;5086967;28;20046;-69
2022/04/15 07:43:10;;;;;;;14.75;9.70;;;10.30;99.90;;;;;;5089023;28;20108;-69
2022/04/15 07:45:35;;;;;;;12.88;9.70;;;10.30;99.90;;;;;;5082145;28;20088;-69
2022/04/15 07:48:01;;;;;;;14.13;9.75;;;10.30;99.90;;;;;;5088865;28;20028;-68
2022/04/15 07:50:27;;;;;;;13.02;9.52;;;10.30;99.90;;;;;;5085014;28;20074;-68
2022/04/15 07:52:57;;;;;;;13.40;9.95;;;10.30;99.90;;;;;;5096937;28;20039;-69
2022/04/15 07:55:23;;;;;;;14.30;9.70;;;10.20;99.90;;;;;;5089416;28;20133;-69
2022/04/15 07:57:49;;;;;;;14.90;8.77;;;10.20;99.90;;;;;;5090685;28;20039;-69
2022/04/15 08:00:14;;;;;;;12.80;8.57;;;10.20;99.90;;;;;;5090831;28;20035;-70
2022/04/15 08:02:41;;;;;;;11.85;9.23;;;10.10;99.90;;;;;;5082857;28;20460;-70
2022/04/15 08:05:07;;;;;;;13.20;9.68;;;10.10;99.90;;;;;;5092602;28;20383;-69
2022/04/15 08:07:32;;;;;;;18.00;11.10;;;10.20;99.90;;;;;;5084592;28;20028;-69
2022/04/15 08:09:58;;;;;;;16.67;11.63;;;10.10;99.90;;;;;;5084294;28;20475;-70
2022/04/15 08:12:24;;;;;;;15.00;11.32;;;10.10;99.90;;;;;;5094849;28;20118;-69
2022/04/15 08:14:51;;;;;;;17.08;11.60;;;10.10;99.90;;;;;;5083564;28;20153;-69
2022/04/15 08:17:17;;;;;;;19.30;11.90;;;10.10;99.90;;;;;;5083270;28;20027;-69
2022/04/15 08:19:43;;;;;;;18.20;11.80;;;10.10;99.90;;;;;;5074505;28;20019;-67
2022/04/15 08:22:10;;;;;;;16.05;11.35;;;10.10;99.90;;;;;;5091227;28;20023;-70
2022/04/15 08:24:42;;;;;;;15.32;11.02;;;10.10;99.90;;;;;;5091717;28;20012;-69
2022/04/15 08:27:09;;;;;;;17.70;11.30;;;10.10;99.90;;;;;;5092801;28;20035;-69
2022/04/15 08:29:38;;;;;;;16.20;11.43;;;10.00;99.90;;;;;;5090048;28;20051;-69
2022/04/15 08:32:08;;;;;;;17.17;11.50;;;10.00;99.90;;;;;;5083853;28;20115;-68
2022/04/15 08:34:36;;;;;;;16.02;12.13;;;9.90;99.90;;;;;;5080755;28;20035;-68
2022/04/15 08:37:01;;;;;;;19.00;12.02;;;9.80;99.90;;;;;;5087946;28;20304;-69
2022/04/15 08:39:27;;;;;;;17.08;12.48;;;9.70;99.90;;;;;;5085510;28;20031;-69
2022/04/15 08:41:54;;;;;;;15.05;11.65;;;9.60;99.90;;;;;;5087871;28;20028;-69
2022/04/15 08:44:22;;;;;;;17.85;11.35;;;9.60;99.90;;;;;;5087601;28;20483;-69
2022/04/15 08:46:49;;;;;;;18.48;12.02;;;9.60;99.90;;;;;;5086924;28;20054;-69
2022/04/15 08:49:19;;;;;;;18.75;12.18;;;9.50;99.90;;;;;;5095851;28;20460;-69
2022/04/15 08:51:47;;;;;;;19.95;12.27;;;9.50;99.90;;;;;;5094778;28;20099;-69
2022/04/15 08:54:13;;;;;;;21.90;12.60;;;9.50;99.90;;;;;;5083730;28;20032;-69
2022/04/15 08:56:38;;;;;;;18.25;12.25;;;9.50;99.90;;;;;;5085546;28;20065;-69
2022/04/15 08:59:04;;;;;;;21.25;12.93;;;9.50;99.90;;;;;;5096718;28;20016;-69
2022/04/15 09:01:30;;;;;;;20.00;12.65;;;9.50;99.90;;;;;;5087501;28;20024;-69
2022/04/15 09:03:58;;;;;;;17.58;12.57;;;9.50;99.90;;;;;;5091307;28;20688;-69
2022/04/15 09:06:29;;;;;;;19.60;11.90;;;9.50;99.90;;;;;;5085063;28;20073;-69
2022/04/15 09:09:12;;;;;;;17.45;11.57;;;9.50;99.90;;;;;;5094975;28;20584;-69
2022/04/15 09:11:39;;;;;;;15.40;10.04;;;9.50;99.90;;;;;;4735223;28;10000689;-70
2022/04/15 09:14:12;;;;;;;19.75;11.60;;;9.50;99.90;;;;;;5078498;28;20476;-69
2022/04/15 09:16:43;;;;;;;14.98;10.55;;;9.50;99.90;;;;;;5087879;28;20475;-69
2022/04/15 09:19:10;;;;;;;16.33;10.75;;;9.50;99.90;;;;;;5094105;28;20035;-69
2022/04/15 09:21:37;;;;;;;18.02;11.23;;;9.40;99.90;;;;;;5095950;28;20028;-69
2022/04/15 09:24:04;;;;;;;15.95;10.80;;;9.50;99.90;;;;;;5097897;28;20045;-68
2022/04/15 09:26:29;;;;;;;14.70;10.57;;;9.50;99.90;;;;;;5089981;28;20106;-68
2022/04/15 09:28:55;;;;;;;15.48;10.55;;;9.40;99.90;;;;;;5084590;28;20126;-67
2022/04/15 09:31:23;;;;;;;16.98;10.35;;;9.40;99.90;;;;;;5087504;28;20070;-68
2022/04/15 09:33:54;;;;;;;14.10;10.15;;;9.40;99.90;;;;;;5084117;28;20034;-68
2022/04/15 09:36:27;;;;;;;13.93;9.73;;;9.40;99.90;;;;;;5097156;28;20114;-68
2022/04/15 09:39:03;;;;;;;15.18;9.93;;;9.40;99.90;;;;;;5089974;28;20047;-68
2022/04/15 09:41:29;;;;;;;14.23;9.30;;;9.40;99.90;;;;;;5093936;28;20043;-68
2022/04/15 09:43:58;;;;;;;15.23;8.73;;;9.40;99.90;;;;;;5096522;28;20415;-67
2022/04/15 09:46:24;;;;;;;16.38;9.70;;;9.50;99.90;;;;;;5089002;28;20384;-67
2022/04/15 09:49:05;;;;;;;14.50;9.02;;;9.60;99.90;;;;;;5087033;28;20202;-67
2022/04/15 09:51:45;;;;;;;12.90;9.15;;;9.60;99.90;;;;;;5093338;28;20054;-68
2022/04/15 09:54:19;;;;;;;12.80;9.73;;;9.70;99.90;;;;;;5092288;28;20073;-67
2022/04/15 09:56:46;;;;;;;12.10;9.55;;;9.70;99.90;;;;;;5097152;28;20035;-68
2022/04/15 09:59:15;;;;;;;14.27;9.48;;;9.80;99.90;;;;;;5089082;28;20177;-69
2022/04/15 10:01:45;;;;;;;13.25;9.48;;;9.80;99.90;;;;;;5092888;28;20058;-68
2022/04/15 10:04:11;;;;;;;12.05;9.70;;;9.80;99.90;;;;;;5092516;28;20036;-69
2022/04/15 10:06:39;;;;;;;12.20;9.13;;;9.80;99.90;;;;;;5099091;28;20154;-69
2022/04/15 10:09:06;;;;;;;11.98;9.45;;;9.80;99.90;;;;;;5095087;28;20028;-68
2022/04/15 10:11:35;;;;;;;12.50;9.40;;;9.80;99.90;;;;;;5101030;28;20035;-69
2022/04/15 10:14:01;;;;;;;11.07;9.15;;;9.90;99.90;;;;;;5093171;28;20491;-68
2022/04/15 10:16:28;;;;;;;14.25;9.45;;;9.80;99.90;;;;;;5102295;28;20020;-68
2022/04/15 10:18:54;;;;;;;12.60;9.50;;;9.80;99.90;;;;;;5093858;28;20042;-69
2022/04/15 10:21:20;;;;;;;12.48;9.43;;;9.80;99.90;;;;;;5103959;28;20391;-69
2022/04/15 10:23:46;;;;;;;10.50;8.48;;;9.80;99.90;;;;;;5100999;28;20031;-69
2022/04/15 10:26:11;;;;;;;12.68;9.13;;;9.90;99.90;;;;;;5092731;28;20488;-68
2022/04/15 10:28:39;;;;;;;13.30;8.88;;;9.90;99.90;;;;;;5092391;28;20018;-69
2022/04/15 10:31:16;;;;;;;12.32;9.15;;;9.90;99.90;;;;;;5096149;28;20039;-69
2022/04/15 10:33:43;;;;;;;12.02;8.52;;;9.80;99.90;;;;;;5094912;28;20531;-69
2022/04/15 10:36:24;;;;;;;11.15;9.02;;;9.80;99.90;;;;;;5097269;28;20118;-69
2022/04/15 10:39:06;;;;;;;10.57;8.63;;;9.90;99.90;;;;;;5100129;28;20023;-69
2022/04/15 10:41:41;;;;;;;12.77;9.10;;;9.90;99.90;;;;;;5100705;28;20039;-69
2022/04/15 10:44:10;;;;;;;12.77;9.20;;;9.80;99.90;;;;;;5091899;28;20036;-68
2022/04/15 10:46:36;;;;;;;11.13;8.35;;;9.80;99.90;;;;;;5093193;28;20380;-69
2022/04/15 10:49:23;;;;;;;12.32;9.30;;;9.70;99.90;;;;;;5093603;28;20616;-68
2022/04/15 10:51:57;;;;;;;12.70;8.48;;;9.80;99.90;;;;;;5097250;28;20035;-68
2022/04/15 10:54:39;;;;;;;10.45;8.23;;;9.80;99.90;;;;;;5090624;28;20053;-68
2022/04/15 10:57:09;;;;;;;9.70;7.60;;;9.80;99.90;;;;;;5093045;28;20024;-68
2022/04/15 11:02:34;;;;;;;11.57;7.40;;;9.80;99.90;;;;;;5100712;28;20757;-68
2022/04/15 11:05:00;;;;;;;11.20;7.43;;;9.70;99.90;;;;;;5088698;28;20100;-68
2022/04/15 11:07:27;;;;;;;9.95;6.97;;;9.70;99.90;;;;;;5091104;28;20494;-68
2022/04/15 11:09:55;;;;;;;9.82;7.90;;;9.70;99.90;;;;;;5090486;28;20021;-67
2022/04/15 11:12:42;;;;;;;8.65;6.90;;;9.80;99.90;;;;;;5085397;28;20019;-67
2022/04/15 11:15:08;;;;;;;9.20;6.65;;;9.90;99.90;;;;;;5088799;28;20038;-67
2022/04/15 11:17:44;;;;;;;7.32;6.15;;;10.10;99.90;;;;;;5092396;28;20379;-68
2022/04/15 11:20:10;;;;;;;8.70;5.78;;;10.40;99.90;;;;;;5089200;28;20495;-68
2022/04/15 11:22:40;;;;;;;11.15;6.60;;;10.80;99.90;;;;;;5090057;28;20066;-69
2022/04/15 11:25:08;;;;;;;7.85;6.10;;;11.10;99.90;;;;;;5087543;28;20035;-69
2022/04/15 11:27:35;;;;;;;7.40;6.18;;;11.30;99.90;;;;;;5094948;28;20065;-70
2022/04/15 11:30:05;;;;;;;6.63;5.50;;;11.50;99.90;;;;;;5056777;28;1089230;-69
2022/04/15 11:32:31;;;;;;;7.57;6.07;;;11.60;99.90;;;;;;5091956;28;20438;-68
2022/04/15 11:35:03;;;;;;;7.70;6.75;;;11.60;99.90;;;;;;5105890;28;20034;-68
2022/04/15 11:37:28;;;;;;;7.82;6.60;;;11.70;99.90;;;;;;5097990;28;20541;-70
2022/04/15 11:39:57;;;;;;;8.77;6.50;;;11.60;99.90;;;;;;5100447;28;20032;-69
2022/04/15 11:42:23;;;;;;;9.52;6.97;;;11.70;99.90;;;;;;5100793;28;20102;-69
2022/04/15 11:44:49;;;;;;;6.05;5.45;;;11.80;99.90;;;;;;5091708;28;20755;-68
2022/04/15 11:47:23;;;;;;;6.05;5.28;;;11.80;99.90;;;;;;5097260;28;20387;-69
2022/04/15 11:49:52;;;;;;;8.77;5.30;;;11.80;99.90;;;;;;5094499;28;20420;-69
2022/04/15 11:52:24;;;;;;;5.57;4.68;;;12.00;99.90;;;;;;5092827;28;20122;-68
2022/04/15 11:54:49;;;;;;;4.68;4.22;;;12.20;99.90;;;;;;5091474;28;20039;-68
2022/04/15 11:57:15;;;;;;;3.78;3.45;;;12.40;99.90;;;;;;5087362;28;20027;-68
2022/04/15 11:59:45;;;;;;;4.55;3.60;;;12.60;99.90;;;;;;5093163;28;20028;-69
2022/04/15 12:02:18;;;;;;;4.30;3.90;;;12.70;99.90;;;;;;5093282;28;20597;-68
2022/04/15 12:04:55;;;;;;;4.40;3.70;;;12.70;99.90;;;;;;5084275;28;20020;-68
2022/04/15 12:07:21;;;;;;;4.10;3.22;;;12.70;99.90;;;;;;5095822;28;20024;-68
2022/04/15 12:09:48;;;;;;;4.55;3.47;;;12.70;99.90;;;;;;5094221;28;20468;-69
2022/04/15 12:12:19;;;;;;;5.13;3.70;;;12.80;99.90;;;;;;5092068;28;20039;-67
2022/04/15 12:14:45;;;;;;;4.13;3.70;;;12.90;99.90;;;;;;5091959;28;20681;-68
2022/04/15 12:17:14;;;;;;;4.00;3.53;;;12.90;99.90;;;;;;5090194;28;20028;-68
2022/04/15 12:19:40;;;;;;;3.67;3.30;;;13.00;99.90;;;;;;5089002;28;20110;-68
2022/04/15 12:22:08;;;;;;;3.53;3.22;;;13.00;99.90;;;;;;5087673;28;20036;-68
2022/04/15 12:24:34;;;;;;;4.47;4.07;;;13.00;99.90;;;;;;5095300;28;20024;-68
2022/04/15 12:27:00;;;;;;;4.10;3.60;;;13.10;99.90;;;;;;5100858;28;20018;-68
2022/04/15 12:32:24;;;;;;;3.75;3.45;;;13.10;99.90;;;;;;5097584;28;20544;-68
2022/04/15 12:34:50;;;;;;;3.75;3.45;;;13.00;99.90;;;;;;5084565;28;20027;-68
2022/04/15 12:37:35;;;;;;;4.20;3.70;;;12.90;99.90;;;;;;5087055;28;20043;-68
2022/04/15 12:40:09;;;;;;;4.85;3.47;;;12.80;99.90;;;;;;5092690;28;20031;-69
2022/04/15 12:42:37;;;;;;;4.60;3.80;;;12.70;99.90;;;;;;5094536;28;20020;-68
2022/04/15 12:45:09;;;;;;;5.97;4.15;;;12.70;99.90;;;;;;5087433;28;20035;-68